sensor_id;sensor_type;location;lat;lon;timestamp;pressure;altitude;pressure_sealevel;temperature;humidity
21109;BME280;10712;52.944;9.098;2022-08-05T00:01:58;101398.53;;;27.84;55.79
21109;BME280;10712;52.944;9.098;2022-08-05T00:04:23;101402.28;;;27.83;55.47
21109;BME280;10712;52.944;9.098;2022-08-05T00:06:49;101395.97;;;27.82;55.54
21109;BME280;10712;52.944;9.098;2022-08-05T00:09:15;101400.97;;;27.79;55.84
21109;BME280;10712;52.944;9.098;2022-08-05T00:11:41;101395.19;;;27.74;55.96
21109;BME280;10712;52.944;9.098;2022-08-05T00:14:07;101393.69;;;27.71;56.12
21109;BME280;10712;52.944;9.098;2022-08-05T00:16:33;101394.53;;;27.72;55.96
21109;BME280;10712;52.944;9.098;2022-08-05T00:18:58;101387.84;;;27.52;56.18
21109;BME280;10712;52.944;9.098;2022-08-05T00:21:24;101387.91;;;27.43;56.22
21109;BME280;10712;52.944;9.098;2022-08-05T00:23:50;101385.16;;;27.43;55.97
21109;BME280;10712;52.944;9.098;2022-08-05T00:26:16;101387.34;;;27.48;55.90
21109;BME280;10712;52.944;9.098;2022-08-05T00:28:42;101379.69;;;27.43;55.63
21109;BME280;10712;52.944;9.098;2022-08-05T00:31:09;101380.34;;;27.45;55.10
21109;BME280;10712;52.944;9.098;2022-08-05T00:33:35;101380.00;;;27.49;54.59
21109;BME280;10712;52.944;9.098;2022-08-05T00:36:01;101364.03;;;27.37;54.45
21109;BME280;10712;52.944;9.098;2022-08-05T00:38:27;101357.88;;;27.35;54.52
21109;BME280;10712;52.944;9.098;2022-08-05T00:40:56;101354.00;;;27.30;54.27
21109;BME280;10712;52.944;9.098;2022-08-05T00:43:22;101350.75;;;27.26;54.19
21109;BME280;10712;52.944;9.098;2022-08-05T00:45:48;101352.84;;;27.24;54.09
21109;BME280;10712;52.944;9.098;2022-08-05T00:48:20;101334.22;;;27.20;53.97
21109;BME280;10712;52.944;9.098;2022-08-05T00:50:49;101327.91;;;27.19;54.12
21109;BME280;10712;52.944;9.098;2022-08-05T00:53:19;101318.66;;;27.20;53.73
21109;BME280;10712;52.944;9.098;2022-08-05T00:55:46;101300.72;;;27.18;53.57
21109;BME280;10712;52.944;9.098;2022-08-05T00:58:14;101302.63;;;27.17;53.42
21109;BME280;10712;52.944;9.098;2022-08-05T01:00:45;101302.25;;;27.20;53.46
21109;BME280;10712;52.944;9.098;2022-08-05T01:03:11;101294.03;;;27.20;53.36
21109;BME280;10712;52.944;9.098;2022-08-05T01:05:38;101280.63;;;27.11;53.46
21109;BME280;10712;52.944;9.098;2022-08-05T01:08:04;101287.31;;;27.08;53.18
21109;BME280;10712;52.944;9.098;2022-08-05T01:10:39;101295.56;;;27.00;53.41
21109;BME280;10712;52.944;9.098;2022-08-05T01:13:35;101293.88;;;26.99;53.39
21109;BME280;10712;52.944;9.098;2022-08-05T01:16:12;101288.41;;;26.99;53.27
21109;BME280;10712;52.944;9.098;2022-08-05T01:18:45;101290.94;;;27.00;53.31
21109;BME280;10712;52.944;9.098;2022-08-05T01:21:43;101274.38;;;27.02;53.01
21109;BME280;10712;52.944;9.098;2022-08-05T01:24:29;101252.66;;;27.00;53.03
21109;BME280;10712;52.944;9.098;2022-08-05T01:30:25;101278.13;;;27.01;53.06
21109;BME280;10712;52.944;9.098;2022-08-05T01:32:56;101281.91;;;27.00;53.09
21109;BME280;10712;52.944;9.098;2022-08-05T01:35:29;101266.50;;;26.99;53.23
21109;BME280;10712;52.944;9.098;2022-08-05T01:37:58;101255.22;;;27.02;53.25
21109;BME280;10712;52.944;9.098;2022-08-05T01:40:29;101246.91;;;26.95;52.99
21109;BME280;10712;52.944;9.098;2022-08-05T01:42:58;101233.69;;;26.99;53.30
21109;BME280;10712;52.944;9.098;2022-08-05T01:45:28;101248.72;;;27.03;53.44
21109;BME280;10712;52.944;9.098;2022-08-05T01:47:59;101224.09;;;27.03;53.42
21109;BME280;10712;52.944;9.098;2022-08-05T01:50:29;101216.94;;;27.02;53.33
21109;BME280;10712;52.944;9.098;2022-08-05T01:53:01;101231.53;;;26.94;53.47
21109;BME280;10712;52.944;9.098;2022-08-05T01:55:31;101240.75;;;26.93;53.35
21109;BME280;10712;52.944;9.098;2022-08-05T01:57:58;101262.19;;;26.82;53.89
21109;BME280;10712;52.944;9.098;2022-08-05T02:00:25;101269.91;;;26.78;54.23
21109;BME280;10712;52.944;9.098;2022-08-05T02:02:59;101283.38;;;26.80;54.45
21109;BME280;10712;52.944;9.098;2022-08-05T02:05:33;101263.22;;;26.81;54.48
21109;BME280;10712;52.944;9.098;2022-08-05T02:08:01;101272.81;;;26.77;54.55
21109;BME280;10712;52.944;9.098;2022-08-05T02:10:45;101269.78;;;26.72;54.54
21109;BME280;10712;52.944;9.098;2022-08-05T02:13:16;101258.84;;;26.72;54.47
21109;BME280;10712;52.944;9.098;2022-08-05T02:15:53;101286.56;;;26.69;54.47
21109;BME280;10712;52.944;9.098;2022-08-05T02:18:26;101291.59;;;26.80;54.39
21109;BME280;10712;52.944;9.098;2022-08-05T02:21:34;101308.16;;;26.78;54.55
21109;BME280;10712;52.944;9.098;2022-08-05T02:24:08;101303.94;;;26.76;54.75
21109;BME280;10712;52.944;9.098;2022-08-05T02:26:57;101297.50;;;26.69;54.69
21109;BME280;10712;52.944;9.098;2022-08-05T02:29:27;101288.22;;;26.70;54.42
21109;BME280;10712;52.944;9.098;2022-08-05T02:31:57;101295.41;;;26.71;54.37
21109;BME280;10712;52.944;9.098;2022-08-05T02:34:25;101296.13;;;26.64;54.19
21109;BME280;10712;52.944;9.098;2022-08-05T02:36:58;101309.19;;;26.54;54.62
21109;BME280;10712;52.944;9.098;2022-08-05T02:39:28;101308.81;;;26.57;54.84
21109;BME280;10712;52.944;9.098;2022-08-05T02:42:01;101306.22;;;26.64;54.72
21109;BME280;10712;52.944;9.098;2022-08-05T02:44:30;101310.16;;;26.61;54.78
21109;BME280;10712;52.944;9.098;2022-08-05T02:46:58;101316.66;;;26.60;54.57
21109;BME280;10712;52.944;9.098;2022-08-05T02:49:29;101309.84;;;26.56;54.40
21109;BME280;10712;52.944;9.098;2022-08-05T02:51:57;101319.25;;;26.54;54.57
21109;BME280;10712;52.944;9.098;2022-08-05T02:54:24;101315.69;;;26.53;54.58
21109;BME280;10712;52.944;9.098;2022-08-05T02:56:52;101299.78;;;26.49;54.65
21109;BME280;10712;52.944;9.098;2022-08-05T02:59:19;101294.19;;;26.42;54.39
21109;BME280;10712;52.944;9.098;2022-08-05T03:01:48;101292.53;;;26.41;54.11
21109;BME280;10712;52.944;9.098;2022-08-05T03:04:19;101289.78;;;26.41;53.88
21109;BME280;10712;52.944;9.098;2022-08-05T03:06:45;101291.16;;;26.37;54.09
21109;BME280;10712;52.944;9.098;2022-08-05T03:09:13;101291.34;;;26.36;53.98
21109;BME280;10712;52.944;9.098;2022-08-05T03:11:42;101292.56;;;26.33;53.99
21109;BME280;10712;52.944;9.098;2022-08-05T03:14:09;101285.41;;;26.32;53.93
21109;BME280;10712;52.944;9.098;2022-08-05T03:16:35;101292.91;;;26.30;53.64
21109;BME280;10712;52.944;9.098;2022-08-05T03:19:02;101304.84;;;26.29;53.97
21109;BME280;10712;52.944;9.098;2022-08-05T03:21:29;101316.47;;;26.31;54.06
21109;BME280;10712;52.944;9.098;2022-08-05T03:23:56;101310.84;;;26.33;53.80
21109;BME280;10712;52.944;9.098;2022-08-05T03:26:23;101303.84;;;26.30;53.83
21109;BME280;10712;52.944;9.098;2022-08-05T03:28:49;101317.50;;;26.22;54.05
21109;BME280;10712;52.944;9.098;2022-08-05T03:31:15;101317.50;;;26.22;54.05
21109;BME280;10712;52.944;9.098;2022-08-05T03:33:41;101304.50;;;26.24;54.03
21109;BME280;10712;52.944;9.098;2022-08-05T03:36:07;101316.00;;;26.27;54.02
21109;BME280;10712;52.944;9.098;2022-08-05T03:38:40;101322.66;;;26.25;53.97
21109;BME280;10712;52.944;9.098;2022-08-05T03:41:09;101326.72;;;26.21;54.12
21109;BME280;10712;52.944;9.098;2022-08-05T03:43:35;101323.31;;;26.19;54.18
21109;BME280;10712;52.944;9.098;2022-08-05T03:46:03;101335.44;;;26.16;54.13
21109;BME280;10712;52.944;9.098;2022-08-05T03:48:30;101332.88;;;26.15;54.12
21109;BME280;10712;52.944;9.098;2022-08-05T03:51:27;101339.91;;;26.09;54.11
21109;BME280;10712;52.944;9.098;2022-08-05T03:54:02;101330.22;;;26.07;54.18
21109;BME280;10712;52.944;9.098;2022-08-05T03:56:44;101319.97;;;26.01;54.19
21109;BME280;10712;52.944;9.098;2022-08-05T03:59:19;101320.50;;;25.96;54.24
21109;BME280;10712;52.944;9.098;2022-08-05T04:01:48;101333.81;;;25.99;54.40
21109;BME280;10712;52.944;9.098;2022-08-05T04:04:17;101339.75;;;26.03;54.22
21109;BME280;10712;52.944;9.098;2022-08-05T04:06:45;101336.72;;;25.98;54.36
21109;BME280;10712;52.944;9.098;2022-08-05T04:09:13;101333.66;;;25.93;54.39
21109;BME280;10712;52.944;9.098;2022-08-05T04:11:40;101335.88;;;25.89;54.45
21109;BME280;10712;52.944;9.098;2022-08-05T04:14:06;101327.69;;;25.89;54.30
21109;BME280;10712;52.944;9.098;2022-08-05T04:16:34;101345.78;;;25.90;54.57
21109;BME280;10712;52.944;9.098;2022-08-05T04:19:01;101339.78;;;25.95;54.71
21109;BME280;10712;52.944;9.098;2022-08-05T04:21:27;101360.06;;;26.00;54.57
21109;BME280;10712;52.944;9.098;2022-08-05T04:23:53;101361.13;;;25.99;54.62
21109;BME280;10712;52.944;9.098;2022-08-05T04:26:19;101364.69;;;26.00;54.93
21109;BME280;10712;52.944;9.098;2022-08-05T04:28:45;101369.97;;;26.01;54.98
21109;BME280;10712;52.944;9.098;2022-08-05T04:31:11;101375.44;;;26.01;54.96
21109;BME280;10712;52.944;9.098;2022-08-05T04:33:37;101375.63;;;26.00;55.11
21109;BME280;10712;52.944;9.098;2022-08-05T04:36:03;101381.75;;;26.02;55.23
21109;BME280;10712;52.944;9.098;2022-08-05T04:38:29;101379.69;;;26.04;55.30
21109;BME280;10712;52.944;9.098;2022-08-05T04:40:55;101370.47;;;26.05;55.32
21109;BME280;10712;52.944;9.098;2022-08-05T04:43:20;101356.16;;;26.03;55.37
21109;BME280;10712;52.944;9.098;2022-08-05T04:45:46;101357.84;;;26.04;55.41
21109;BME280;10712;52.944;9.098;2022-08-05T04:48:14;101355.13;;;26.04;55.23
21109;BME280;10712;52.944;9.098;2022-08-05T04:50:45;101357.16;;;26.02;55.21
21109;BME280;10712;52.944;9.098;2022-08-05T04:53:14;101350.38;;;25.89;55.65
21109;BME280;10712;52.944;9.098;2022-08-05T04:55:41;101361.13;;;25.99;55.32
21109;BME280;10712;52.944;9.098;2022-08-05T04:58:10;101381.25;;;25.98;55.29
21109;BME280;10712;52.944;9.098;2022-08-05T05:00:38;101379.69;;;26.04;55.42
21109;BME280;10712;52.944;9.098;2022-08-05T05:03:06;101385.16;;;26.04;55.53
21109;BME280;10712;52.944;9.098;2022-08-05T05:05:33;101372.53;;;26.03;55.75
21109;BME280;10712;52.944;9.098;2022-08-05T05:08:08;101388.91;;;26.03;55.77
21109;BME280;10712;52.944;9.098;2022-08-05T05:10:44;101384.13;;;26.05;55.86
21109;BME280;10712;52.944;9.098;2022-08-05T05:13:15;101379.38;;;26.07;55.83
21109;BME280;10712;52.944;9.098;2022-08-05T05:15:44;101373.69;;;26.08;55.94
21109;BME280;10712;52.944;9.098;2022-08-05T05:18:15;101371.50;;;26.12;55.65
21109;BME280;10712;52.944;9.098;2022-08-05T05:20:45;101371.13;;;26.15;55.43
21109;BME280;10712;52.944;9.098;2022-08-05T05:23:12;101372.66;;;26.17;55.43
21109;BME280;10712;52.944;9.098;2022-08-05T05:25:43;101374.00;;;26.21;55.74
21109;BME280;10712;52.944;9.098;2022-08-05T05:28:10;101368.53;;;26.30;55.25
21109;BME280;10712;52.944;9.098;2022-08-05T05:30:38;101371.44;;;26.28;55.32
21109;BME280;10712;52.944;9.098;2022-08-05T05:33:06;101373.69;;;26.33;55.39
21109;BME280;10712;52.944;9.098;2022-08-05T05:35:33;101365.66;;;26.31;55.37
21109;BME280;10712;52.944;9.098;2022-08-05T05:38:01;101368.06;;;26.26;55.54
21109;BME280;10712;52.944;9.098;2022-08-05T05:40:30;101355.19;;;26.35;55.35
21109;BME280;10712;52.944;9.098;2022-08-05T05:42:57;101326.53;;;26.31;55.31
21109;BME280;10712;52.944;9.098;2022-08-05T05:45:23;101288.66;;;26.27;55.72
21109;BME280;10712;52.944;9.098;2022-08-05T05:47:49;101327.56;;;26.30;55.95
21109;BME280;10712;52.944;9.098;2022-08-05T05:50:17;101347.69;;;26.37;55.86
21109;BME280;10712;52.944;9.098;2022-08-05T05:52:45;101349.25;;;26.31;56.01
21109;BME280;10712;52.944;9.098;2022-08-05T05:55:13;101355.72;;;26.38;55.77
21109;BME280;10712;52.944;9.098;2022-08-05T05:57:42;101365.31;;;26.34;55.88
21109;BME280;10712;52.944;9.098;2022-08-05T06:00:15;101374.53;;;26.33;55.79
21109;BME280;10712;52.944;9.098;2022-08-05T06:02:41;101361.88;;;26.32;55.86
21109;BME280;10712;52.944;9.098;2022-08-05T06:05:10;101371.44;;;26.36;55.75
21109;BME280;10712;52.944;9.098;2022-08-05T06:07:36;101386.78;;;26.37;55.75
21109;BME280;10712;52.944;9.098;2022-08-05T06:10:04;101401.13;;;26.39;55.70
21109;BME280;10712;52.944;9.098;2022-08-05T06:12:33;101397.03;;;26.35;55.86
21109;BME280;10712;52.944;9.098;2022-08-05T06:15:00;101409.84;;;26.35;55.74
21109;BME280;10712;52.944;9.098;2022-08-05T06:17:27;101409.69;;;26.28;55.40
21109;BME280;10712;52.944;9.098;2022-08-05T06:19:52;101397.41;;;26.24;55.27
21109;BME280;10712;52.944;9.098;2022-08-05T06:22:24;101389.91;;;26.26;54.86
21109;BME280;10712;52.944;9.098;2022-08-05T06:24:51;101393.69;;;26.25;55.03
21109;BME280;10712;52.944;9.098;2022-08-05T06:27:17;101393.97;;;26.22;55.11
21109;BME280;10712;52.944;9.098;2022-08-05T06:29:43;101385.13;;;26.20;55.31
21109;BME280;10712;52.944;9.098;2022-08-05T06:32:10;101380.31;;;26.22;55.49
21109;BME280;10712;52.944;9.098;2022-08-05T06:34:37;101377.97;;;26.27;55.47
21109;BME280;10712;52.944;9.098;2022-08-05T06:37:03;101383.91;;;26.22;55.63
21109;BME280;10712;52.944;9.098;2022-08-05T06:39:29;101391.44;;;26.28;55.40
21109;BME280;10712;52.944;9.098;2022-08-05T06:41:59;101396.03;;;26.28;55.25
21109;BME280;10712;52.944;9.098;2022-08-05T06:44:28;101393.13;;;26.30;55.33
21109;BME280;10712;52.944;9.098;2022-08-05T06:46:55;101398.91;;;26.35;55.01
21109;BME280;10712;52.944;9.098;2022-08-05T06:49:22;101405.28;;;26.27;55.33
21109;BME280;10712;52.944;9.098;2022-08-05T06:51:48;101411.78;;;26.26;55.44
21109;BME280;10712;52.944;9.098;2022-08-05T06:54:14;101411.06;;;26.24;55.58
21109;BME280;10712;52.944;9.098;2022-08-05T06:56:40;101409.50;;;26.21;55.73
21109;BME280;10712;52.944;9.098;2022-08-05T06:59:06;101415.53;;;26.25;56.02
21109;BME280;10712;52.944;9.098;2022-08-05T07:01:32;101406.31;;;26.26;56.20
21109;BME280;10712;52.944;9.098;2022-08-05T07:03:59;101396.53;;;26.23;56.22
21109;BME280;10712;52.944;9.098;2022-08-05T07:06:26;101397.25;;;26.25;56.46
21109;BME280;10712;52.944;9.098;2022-08-05T07:08:52;101413.78;;;26.24;56.51
21109;BME280;10712;52.944;9.098;2022-08-05T07:11:18;101424.41;;;26.19;56.81
21109;BME280;10712;52.944;9.098;2022-08-05T07:13:44;101432.59;;;26.19;57.25
21109;BME280;10712;52.944;9.098;2022-08-05T07:16:29;101429.69;;;26.20;57.06
21109;BME280;10712;52.944;9.098;2022-08-05T07:19:17;101432.78;;;26.25;57.21
21109;BME280;10712;52.944;9.098;2022-08-05T07:21:48;101421.00;;;26.25;57.22
21109;BME280;10712;52.944;9.098;2022-08-05T07:24:16;101425.75;;;26.31;57.08
21109;BME280;10712;52.944;9.098;2022-08-05T07:26:43;101422.34;;;26.29;57.13
21109;BME280;10712;52.944;9.098;2022-08-05T07:29:09;101424.91;;;26.31;57.00
21109;BME280;10712;52.944;9.098;2022-08-05T07:31:36;101422.34;;;26.29;57.00
21109;BME280;10712;52.944;9.098;2022-08-05T07:34:02;101423.34;;;26.28;57.42
21109;BME280;10712;52.944;9.098;2022-08-05T07:36:28;101434.28;;;26.28;57.60
21109;BME280;10712;52.944;9.098;2022-08-05T07:38:55;101437.69;;;26.30;57.50
21109;BME280;10712;52.944;9.098;2022-08-05T07:41:23;101437.00;;;26.28;57.87
21109;BME280;10712;52.944;9.098;2022-08-05T07:43:50;101434.97;;;26.30;57.65
21109;BME280;10712;52.944;9.098;2022-08-05T07:46:17;101426.78;;;26.30;57.76
21109;BME280;10712;52.944;9.098;2022-08-05T07:48:43;101432.56;;;26.35;57.72
21109;BME280;10712;52.944;9.098;2022-08-05T07:51:08;101438.38;;;26.40;57.71
21109;BME280;10712;52.944;9.098;2022-08-05T07:53:34;101433.56;;;26.42;57.60
21109;BME280;10712;52.944;9.098;2022-08-05T07:56:03;101428.63;;;26.46;57.65
21109;BME280;10712;52.944;9.098;2022-08-05T07:58:29;101436.63;;;26.47;57.64
21109;BME280;10712;52.944;9.098;2022-08-05T08:00:55;101431.81;;;26.49;57.59
21109;BME280;10712;52.944;9.098;2022-08-05T08:03:20;101436.09;;;26.52;57.66
21109;BME280;10712;52.944;9.098;2022-08-05T08:05:46;101438.63;;;26.61;57.08
21109;BME280;10712;52.944;9.098;2022-08-05T08:08:16;101435.56;;;26.56;57.06
21109;BME280;10712;52.944;9.098;2022-08-05T08:10:42;101434.72;;;26.56;57.06
21109;BME280;10712;52.944;9.098;2022-08-05T08:13:08;101439.31;;;26.55;57.23
21109;BME280;10712;52.944;9.098;2022-08-05T08:15:34;101431.66;;;26.51;57.04
21109;BME280;10712;52.944;9.098;2022-08-05T08:18:00;101434.56;;;26.49;57.21
21109;BME280;10712;52.944;9.098;2022-08-05T08:20:26;101429.94;;;26.50;57.48
21109;BME280;10712;52.944;9.098;2022-08-05T08:22:58;101432.19;;;26.54;57.20
21109;BME280;10712;52.944;9.098;2022-08-05T08:25:28;101443.81;;;26.48;57.38
21109;BME280;10712;52.944;9.098;2022-08-05T08:27:54;101439.69;;;26.52;57.29
21109;BME280;10712;52.944;9.098;2022-08-05T08:30:21;101446.34;;;26.50;56.94
21109;BME280;10712;52.944;9.098;2022-08-05T08:32:47;101451.50;;;26.45;56.97
21109;BME280;10712;52.944;9.098;2022-08-05T08:35:13;101454.09;;;26.38;57.33
21109;BME280;10712;52.944;9.098;2022-08-05T08:37:39;101458.16;;;26.42;57.32
21109;BME280;10712;52.944;9.098;2022-08-05T08:40:06;101449.97;;;26.42;56.99
21109;BME280;10712;52.944;9.098;2022-08-05T08:42:32;101455.09;;;26.37;56.83
21109;BME280;10712;52.944;9.098;2022-08-05T08:44:58;101459.88;;;26.35;56.85
21109;BME280;10712;52.944;9.098;2022-08-05T08:47:26;101452.91;;;26.33;56.94
21109;BME280;10712;52.944;9.098;2022-08-05T08:49:55;101458.88;;;26.28;57.05
21109;BME280;10712;52.944;9.098;2022-08-05T08:52:30;101467.06;;;26.28;56.95
21109;BME280;10712;52.944;9.098;2022-08-05T08:54:56;101468.13;;;26.27;57.18
21109;BME280;10712;52.944;9.098;2022-08-05T08:57:23;101465.19;;;26.28;57.17
21109;BME280;10712;52.944;9.098;2022-08-05T08:59:50;101463.16;;;26.31;57.43
21109;BME280;10712;52.944;9.098;2022-08-05T09:02:19;101465.72;;;26.32;57.35
21109;BME280;10712;52.944;9.098;2022-08-05T09:04:45;101460.94;;;26.34;57.51
21109;BME280;10712;52.944;9.098;2022-08-05T09:07:12;101467.91;;;26.37;57.32
21109;BME280;10712;52.944;9.098;2022-08-05T09:09:38;101473.91;;;26.40;57.59
21109;BME280;10712;52.944;9.098;2022-08-05T09:12:07;101463.31;;;26.37;57.90
21109;BME280;10712;52.944;9.098;2022-08-05T09:14:35;101457.84;;;26.37;58.01
21109;BME280;10712;52.944;9.098;2022-08-05T09:17:07;101454.41;;;26.35;57.92
21109;BME280;10712;52.944;9.098;2022-08-05T09:19:34;101447.94;;;26.28;58.25
21109;BME280;10712;52.944;9.098;2022-08-05T09:22:00;101447.59;;;26.31;58.16
21109;BME280;10712;52.944;9.098;2022-08-05T09:24:25;101451.69;;;26.35;57.96
21109;BME280;10712;52.944;9.098;2022-08-05T09:26:55;101452.75;;;26.34;58.04
21109;BME280;10712;52.944;9.098;2022-08-05T09:29:40;101457.50;;;26.32;58.13
21109;BME280;10712;52.944;9.098;2022-08-05T09:32:08;101467.06;;;26.36;58.27
21109;BME280;10712;52.944;9.098;2022-08-05T09:34:49;101450.00;;;26.34;58.17
21109;BME280;10712;52.944;9.098;2022-08-05T09:37:22;101456.97;;;26.37;58.19
21109;BME280;10712;52.944;9.098;2022-08-05T09:39:48;101452.38;;;26.37;58.31
21109;BME280;10712;52.944;9.098;2022-08-05T09:42:20;101454.09;;;26.38;58.32
21109;BME280;10712;52.944;9.098;2022-08-05T09:44:52;101449.63;;;26.37;58.37
21109;BME280;10712;52.944;9.098;2022-08-05T09:47:22;101466.50;;;26.49;57.89
21109;BME280;10712;52.944;9.098;2022-08-05T09:49:53;101453.53;;;26.51;57.83
21109;BME280;10712;52.944;9.098;2022-08-05T09:52:34;101458.50;;;26.47;57.78
21109;BME280;10712;52.944;9.098;2022-08-05T09:57:43;101475.91;;;26.46;57.29
21109;BME280;10712;52.944;9.098;2022-08-05T10:00:20;101477.13;;;26.44;57.33
21109;BME280;10712;52.944;9.098;2022-08-05T10:02:51;101480.53;;;26.38;57.46
21109;BME280;10712;52.944;9.098;2022-08-05T10:05:25;101484.66;;;26.34;57.54
21109;BME280;10712;52.944;9.098;2022-08-05T10:08:03;101484.16;;;26.30;57.42
21109;BME280;10712;52.944;9.098;2022-08-05T10:13:10;101485.84;;;26.47;57.49
21109;BME280;10712;52.944;9.098;2022-08-05T10:15:38;101490.59;;;26.53;57.35
21109;BME280;10712;52.944;9.098;2022-08-05T10:18:17;101504.91;;;26.55;57.30
21109;BME280;10712;52.944;9.098;2022-08-05T10:21:01;101497.91;;;26.61;57.49
21109;BME280;10712;52.944;9.098;2022-08-05T10:23:37;101502.53;;;26.60;57.54
21109;BME280;10712;52.944;9.098;2022-08-05T10:26:06;101517.22;;;26.59;57.67
21109;BME280;10712;52.944;9.098;2022-08-05T10:28:34;101511.75;;;26.59;57.57
21109;BME280;10712;52.944;9.098;2022-08-05T10:31:01;101523.19;;;26.63;57.69
21109;BME280;10712;52.944;9.098;2022-08-05T10:33:30;101517.84;;;26.70;57.42
21109;BME280;10712;52.944;9.098;2022-08-05T10:35:59;101521.66;;;26.69;57.55
21109;BME280;10712;52.944;9.098;2022-08-05T10:38:28;101516.19;;;26.69;57.72
21109;BME280;10712;52.944;9.098;2022-08-05T10:41:06;101515.19;;;26.61;57.32
21109;BME280;10712;52.944;9.098;2022-08-05T10:44:02;101521.31;;;26.55;57.50
21109;BME280;10712;52.944;9.098;2022-08-05T10:46:48;101521.69;;;26.52;57.69
21109;BME280;10712;52.944;9.098;2022-08-05T10:49:15;101522.31;;;26.62;57.40
21109;BME280;10712;52.944;9.098;2022-08-05T10:51:43;101530.03;;;26.67;57.29
21109;BME280;10712;52.944;9.098;2022-08-05T10:54:10;101540.09;;;26.75;57.23
21109;BME280;10712;52.944;9.098;2022-08-05T10:56:46;101544.53;;;26.67;57.26
21109;BME280;10712;52.944;9.098;2022-08-05T10:59:28;101547.63;;;26.64;57.47
21109;BME280;10712;52.944;9.098;2022-08-05T11:02:12;101548.47;;;26.65;57.45
21109;BME280;10712;52.944;9.098;2022-08-05T11:04:47;101563.31;;;26.71;57.35
21109;BME280;10712;52.944;9.098;2022-08-05T11:07:15;101548.78;;;26.78;57.12
21109;BME280;10712;52.944;9.098;2022-08-05T11:09:48;101533.22;;;26.79;56.92
21109;BME280;10712;52.944;9.098;2022-08-05T11:17:42;101554.09;;;26.72;56.43
21109;BME280;10712;52.944;9.098;2022-08-05T11:20:44;101562.31;;;26.63;56.12
21109;BME280;10712;52.944;9.098;2022-08-05T11:23:41;101569.47;;;26.64;55.64
21109;BME280;10712;52.944;9.098;2022-08-05T11:26:10;101576.81;;;26.72;55.36
21109;BME280;10712;52.944;9.098;2022-08-05T11:28:39;101579.00;;;26.77;55.43
21109;BME280;10712;52.944;9.098;2022-08-05T11:36:44;101563.94;;;26.97;55.03
21109;BME280;10712;52.944;9.098;2022-08-05T11:39:46;101577.44;;;27.07;54.70
21109;BME280;10712;52.944;9.098;2022-08-05T11:42:13;101587.16;;;27.17;53.97
21109;BME280;10712;52.944;9.098;2022-08-05T11:44:41;101581.53;;;27.11;54.12
21109;BME280;10712;52.944;9.098;2022-08-05T11:47:08;101588.03;;;27.10;54.23
21109;BME280;10712;52.944;9.098;2022-08-05T11:49:34;101585.28;;;27.10;54.36
21109;BME280;10712;52.944;9.098;2022-08-05T11:52:00;101600.84;;;27.17;54.04
21109;BME280;10712;52.944;9.098;2022-08-05T11:54:29;101614.50;;;27.17;54.34
21109;BME280;10712;52.944;9.098;2022-08-05T11:56:58;101601.47;;;27.19;54.71
21109;BME280;10712;52.944;9.098;2022-08-05T11:59:29;101610.22;;;27.23;54.91
21109;BME280;10712;52.944;9.098;2022-08-05T12:02:04;101617.41;;;27.16;54.34
21109;BME280;10712;52.944;9.098;2022-08-05T12:04:58;101613.50;;;27.10;54.84
21109;BME280;10712;52.944;9.098;2022-08-05T12:07:24;101625.94;;;27.21;54.25
21109;BME280;10712;52.944;9.098;2022-08-05T12:09:54;101623.38;;;27.19;54.13
21109;BME280;10712;52.944;9.098;2022-08-05T12:12:25;101628.22;;;27.09;54.58
21109;BME280;10712;52.944;9.098;2022-08-05T12:14:55;101627.19;;;27.10;54.50
21109;BME280;10712;52.944;9.098;2022-08-05T12:17:21;101632.13;;;27.15;54.51
21109;BME280;10712;52.944;9.098;2022-08-05T12:19:50;101635.16;;;27.20;54.41
21109;BME280;10712;52.944;9.098;2022-08-05T12:22:21;101621.28;;;27.29;54.02
21109;BME280;10712;52.944;9.098;2022-08-05T12:24:49;101627.94;;;27.35;53.63
21109;BME280;10712;52.944;9.098;2022-08-05T12:27:28;101635.59;;;27.39;53.62
21109;BME280;10712;52.944;9.098;2022-08-05T12:30:00;101634.06;;;27.45;53.62
21109;BME280;10712;52.944;9.098;2022-08-05T12:32:33;101635.56;;;27.56;53.53
21109;BME280;10712;52.944;9.098;2022-08-05T12:35:05;101633.16;;;27.61;53.84
21109;BME280;10712;52.944;9.098;2022-08-05T12:37:31;101630.78;;;27.58;53.83
21109;BME280;10712;52.944;9.098;2022-08-05T12:39:57;101633.38;;;27.82;52.50
21109;BME280;10712;52.944;9.098;2022-08-05T12:42:29;101635.75;;;27.85;52.55
21109;BME280;10712;52.944;9.098;2022-08-05T12:45:06;101637.22;;;27.96;52.37
21109;BME280;10712;52.944;9.098;2022-08-05T12:47:33;101638.34;;;28.09;52.24
21109;BME280;10712;52.944;9.098;2022-08-05T12:50:10;101644.81;;;28.16;51.14
21109;BME280;10712;52.944;9.098;2022-08-05T12:52:36;101648.31;;;28.02;50.61
21109;BME280;10712;52.944;9.098;2022-08-05T12:55:23;101643.81;;;28.09;50.60
21109;BME280;10712;52.944;9.098;2022-08-05T12:57:55;101628.03;;;28.19;51.14
21109;BME280;10712;52.944;9.098;2022-08-05T13:00:25;101631.69;;;28.35;51.03
21109;BME280;10712;52.944;9.098;2022-08-05T13:02:52;101632.50;;;28.35;51.08
21109;BME280;10712;52.944;9.098;2022-08-05T13:05:19;101628.25;;;28.33;50.92
21109;BME280;10712;52.944;9.098;2022-08-05T13:07:45;101633.06;;;28.31;51.06
21109;BME280;10712;52.944;9.098;2022-08-05T13:10:14;101632.94;;;28.47;50.75
21109;BME280;10712;52.944;9.098;2022-08-05T13:12:42;101621.44;;;28.29;49.44
21109;BME280;10712;52.944;9.098;2022-08-05T13:15:11;101620.56;;;28.51;49.80
21109;BME280;10712;52.944;9.098;2022-08-05T13:17:37;101621.00;;;28.77;49.05
21109;BME280;10712;52.944;9.098;2022-08-05T13:20:13;101611.66;;;28.86;48.78
21109;BME280;10712;52.944;9.098;2022-08-05T13:22:45;101618.69;;;29.04;48.55
21109;BME280;10712;52.944;9.098;2022-08-05T13:25:15;101617.63;;;29.05;47.53